sensor_id;sensor_type;location;lat;lon;timestamp;temperature;humidity
26254;DHT22;53339;51.378;0.094;2023-03-31T00:01:55;10.50;88.20
26254;DHT22;53339;51.378;0.094;2023-03-31T00:04:28;10.50;88.20
26254;DHT22;53339;51.378;0.094;2023-03-31T00:07:01;10.60;88.20
26254;DHT22;53339;51.378;0.094;2023-03-31T00:09:33;10.50;88.10
26254;DHT22;53339;51.378;0.094;2023-03-31T00:12:03;10.50;88.10
26254;DHT22;53339;51.378;0.094;2023-03-31T00:14:31;10.50;88.00
26254;DHT22;53339;51.378;0.094;2023-03-31T00:17:02;10.50;88.00
26254;DHT22;53339;51.378;0.094;2023-03-31T00:19:35;10.50;88.00
26254;DHT22;53339;51.378;0.094;2023-03-31T00:22:03;10.50;88.00
26254;DHT22;53339;51.378;0.094;2023-03-31T00:24:34;10.50;88.00
26254;DHT22;53339;51.378;0.094;2023-03-31T00:27:04;10.40;88.00
26254;DHT22;53339;51.378;0.094;2023-03-31T00:29:33;10.40;88.00
26254;DHT22;53339;51.378;0.094;2023-03-31T00:32:03;10.40;88.00
26254;DHT22;53339;51.378;0.094;2023-03-31T00:34:32;10.40;88.00
26254;DHT22;53339;51.378;0.094;2023-03-31T00:37:03;10.40;88.10
26254;DHT22;53339;51.378;0.094;2023-03-31T00:39:33;10.40;88.10
26254;DHT22;53339;51.378;0.094;2023-03-31T00:42:03;10.40;88.20
26254;DHT22;53339;51.378;0.094;2023-03-31T00:44:32;10.30;88.20
26254;DHT22;53339;51.378;0.094;2023-03-31T00:47:05;10.40;88.30
26254;DHT22;53339;51.378;0.094;2023-03-31T00:49:44;10.40;88.40
26254;DHT22;53339;51.378;0.094;2023-03-31T00:52:31;10.40;88.50
26254;DHT22;53339;51.378;0.094;2023-03-31T00:55:10;10.40;88.60
26254;DHT22;53339;51.378;0.094;2023-03-31T00:57:46;10.40;88.60
26254;DHT22;53339;51.378;0.094;2023-03-31T01:00:16;10.40;88.70
26254;DHT22;53339;51.378;0.094;2023-03-31T01:02:51;10.40;88.80
26254;DHT22;53339;51.378;0.094;2023-03-31T01:05:26;10.40;88.80
26254;DHT22;53339;51.378;0.094;2023-03-31T01:07:58;10.40;88.90
26254;DHT22;53339;51.378;0.094;2023-03-31T01:10:28;10.50;88.90
26254;DHT22;53339;51.378;0.094;2023-03-31T01:13:00;10.50;88.90
26254;DHT22;53339;51.378;0.094;2023-03-31T01:15:30;10.50;89.00
26254;DHT22;53339;51.378;0.094;2023-03-31T01:17:58;10.50;89.00
26254;DHT22;53339;51.378;0.094;2023-03-31T01:23:35;10.50;89.00
26254;DHT22;53339;51.378;0.094;2023-03-31T01:42:12;10.60;89.30
26254;DHT22;53339;51.378;0.094;2023-03-31T01:47:26;10.60;89.40
26254;DHT22;53339;51.378;0.094;2023-03-31T01:50:01;10.70;89.40
26254;DHT22;53339;51.378;0.094;2023-03-31T01:52:47;10.70;89.40
26254;DHT22;53339;51.378;0.094;2023-03-31T01:55:34;10.70;89.40
26254;DHT22;53339;51.378;0.094;2023-03-31T01:58:20;10.70;89.40
26254;DHT22;53339;51.378;0.094;2023-03-31T02:00:58;10.70;89.40
26254;DHT22;53339;51.378;0.094;2023-03-31T02:03:34;10.70;89.30
26254;DHT22;53339;51.378;0.094;2023-03-31T02:06:26;10.70;89.40
26254;DHT22;53339;51.378;0.094;2023-03-31T02:09:02;10.70;89.30
26254;DHT22;53339;51.378;0.094;2023-03-31T02:11:32;10.60;89.30
26254;DHT22;53339;51.378;0.094;2023-03-31T02:14:02;10.60;89.30
26254;DHT22;53339;51.378;0.094;2023-03-31T02:16:37;10.70;89.40
26254;DHT22;53339;51.378;0.094;2023-03-31T02:19:09;10.70;89.40
26254;DHT22;53339;51.378;0.094;2023-03-31T02:21:41;10.70;89.40
26254;DHT22;53339;51.378;0.094;2023-03-31T02:24:11;10.70;89.40
26254;DHT22;53339;51.378;0.094;2023-03-31T02:26:53;10.60;89.40
26254;DHT22;53339;51.378;0.094;2023-03-31T02:29:26;10.70;89.30
26254;DHT22;53339;51.378;0.094;2023-03-31T02:32:22;10.60;89.30
26254;DHT22;53339;51.378;0.094;2023-03-31T02:34:54;10.60;89.30
26254;DHT22;53339;51.378;0.094;2023-03-31T02:37:23;10.60;89.30
26254;DHT22;53339;51.378;0.094;2023-03-31T02:39:54;10.60;89.30
26254;DHT22;53339;51.378;0.094;2023-03-31T02:42:23;10.60;89.30
26254;DHT22;53339;51.378;0.094;2023-03-31T02:44:53;10.60;89.30
26254;DHT22;53339;51.378;0.094;2023-03-31T02:47:22;10.60;89.30
26254;DHT22;53339;51.378;0.094;2023-03-31T02:49:55;10.60;89.40
26254;DHT22;53339;51.378;0.094;2023-03-31T02:52:43;10.60;89.30
26254;DHT22;53339;51.378;0.094;2023-03-31T02:55:40;10.60;89.30
26254;DHT22;53339;51.378;0.094;2023-03-31T02:58:45;10.60;89.30
26254;DHT22;53339;51.378;0.094;2023-03-31T03:09:57;10.50;89.20
26254;DHT22;53339;51.378;0.094;2023-03-31T03:15:11;10.50;89.10
26254;DHT22;53339;51.378;0.094;2023-03-31T03:17:45;10.40;89.10
26254;DHT22;53339;51.378;0.094;2023-03-31T03:20:16;10.50;89.20
26254;DHT22;53339;51.378;0.094;2023-03-31T03:22:45;10.40;89.10
26254;DHT22;53339;51.378;0.094;2023-03-31T03:25:14;10.40;89.00
26254;DHT22;53339;51.378;0.094;2023-03-31T03:27:48;10.40;89.10
26254;DHT22;53339;51.378;0.094;2023-03-31T03:30:16;10.40;89.10
26254;DHT22;53339;51.378;0.094;2023-03-31T03:32:44;10.40;89.10
26254;DHT22;53339;51.378;0.094;2023-03-31T03:35:13;10.40;89.10
26254;DHT22;53339;51.378;0.094;2023-03-31T03:37:41;10.40;89.10
26254;DHT22;53339;51.378;0.094;2023-03-31T03:40:09;10.30;89.10
26254;DHT22;53339;51.378;0.094;2023-03-31T03:42:38;10.30;89.10
26254;DHT22;53339;51.378;0.094;2023-03-31T03:45:07;10.30;89.10
26254;DHT22;53339;51.378;0.094;2023-03-31T03:47:36;10.30;89.10
26254;DHT22;53339;51.378;0.094;2023-03-31T03:50:05;10.20;89.00
26254;DHT22;53339;51.378;0.094;2023-03-31T03:52:34;10.20;89.00
26254;DHT22;53339;51.378;0.094;2023-03-31T03:55:03;10.20;89.00
26254;DHT22;53339;51.378;0.094;2023-03-31T03:57:35;10.20;89.10
26254;DHT22;53339;51.378;0.094;2023-03-31T04:00:06;10.20;89.20
26254;DHT22;53339;51.378;0.094;2023-03-31T04:02:44;10.20;89.20
26254;DHT22;53339;51.378;0.094;2023-03-31T04:05:12;10.10;89.30
26254;DHT22;53339;51.378;0.094;2023-03-31T04:07:40;10.20;89.20
26254;DHT22;53339;51.378;0.094;2023-03-31T04:10:16;10.10;89.20
26254;DHT22;53339;51.378;0.094;2023-03-31T04:12:47;10.10;89.20
26254;DHT22;53339;51.378;0.094;2023-03-31T04:15:25;10.10;89.20
26254;DHT22;53339;51.378;0.094;2023-03-31T04:17:54;10.10;89.20
26254;DHT22;53339;51.378;0.094;2023-03-31T04:20:25;10.10;89.20
26254;DHT22;53339;51.378;0.094;2023-03-31T04:22:57;10.10;89.20
26254;DHT22;53339;51.378;0.094;2023-03-31T04:25:27;10.10;89.30
26254;DHT22;53339;51.378;0.094;2023-03-31T04:27:58;10.10;89.20
26254;DHT22;53339;51.378;0.094;2023-03-31T04:30:27;10.10;89.20
26254;DHT22;53339;51.378;0.094;2023-03-31T04:33:01;10.00;89.10
26254;DHT22;53339;51.378;0.094;2023-03-31T04:35:34;10.00;89.20
26254;DHT22;53339;51.378;0.094;2023-03-31T04:38:22;10.00;89.20
26254;DHT22;53339;51.378;0.094;2023-03-31T04:40:56;10.00;89.20
26254;DHT22;53339;51.378;0.094;2023-03-31T04:43:25;10.00;89.20
26254;DHT22;53339;51.378;0.094;2023-03-31T04:45:53;10.00;89.20
26254;DHT22;53339;51.378;0.094;2023-03-31T04:48:24;10.00;89.20
26254;DHT22;53339;51.378;0.094;2023-03-31T04:50:53;10.00;89.20
26254;DHT22;53339;51.378;0.094;2023-03-31T04:53:21;9.90;89.20
26254;DHT22;53339;51.378;0.094;2023-03-31T04:55:50;9.90;89.30
26254;DHT22;53339;51.378;0.094;2023-03-31T04:58:19;9.90;89.30
26254;DHT22;53339;51.378;0.094;2023-03-31T05:00:48;9.90;89.40
26254;DHT22;53339;51.378;0.094;2023-03-31T05:03:17;9.90;89.40
26254;DHT22;53339;51.378;0.094;2023-03-31T05:05:46;9.90;89.50
26254;DHT22;53339;51.378;0.094;2023-03-31T05:08:14;9.90;89.60
26254;DHT22;53339;51.378;0.094;2023-03-31T05:10:43;9.90;89.60
26254;DHT22;53339;51.378;0.094;2023-03-31T05:13:12;9.90;89.60
26254;DHT22;53339;51.378;0.094;2023-03-31T05:15:41;9.90;89.60
26254;DHT22;53339;51.378;0.094;2023-03-31T05:18:11;9.90;89.70
26254;DHT22;53339;51.378;0.094;2023-03-31T05:20:44;9.90;89.80
26254;DHT22;53339;51.378;0.094;2023-03-31T05:23:13;9.90;89.80
26254;DHT22;53339;51.378;0.094;2023-03-31T05:25:42;9.90;89.80
26254;DHT22;53339;51.378;0.094;2023-03-31T05:28:11;9.90;89.80
26254;DHT22;53339;51.378;0.094;2023-03-31T05:30:39;9.90;89.90
26254;DHT22;53339;51.378;0.094;2023-03-31T05:33:10;9.90;89.90
26254;DHT22;53339;51.378;0.094;2023-03-31T05:35:38;9.90;89.90
26254;DHT22;53339;51.378;0.094;2023-03-31T05:38:07;9.90;90.00
26254;DHT22;53339;51.378;0.094;2023-03-31T05:40:36;9.90;90.00
26254;DHT22;53339;51.378;0.094;2023-03-31T05:43:05;9.90;89.90
26254;DHT22;53339;51.378;0.094;2023-03-31T05:45:33;9.90;90.00
26254;DHT22;53339;51.378;0.094;2023-03-31T05:48:01;9.90;90.00
26254;DHT22;53339;51.378;0.094;2023-03-31T05:50:33;9.90;90.00
26254;DHT22;53339;51.378;0.094;2023-03-31T05:53:02;9.90;89.90
26254;DHT22;53339;51.378;0.094;2023-03-31T05:55:30;9.90;90.00
26254;DHT22;53339;51.378;0.094;2023-03-31T05:58:00;9.90;90.00
26254;DHT22;53339;51.378;0.094;2023-03-31T06:00:27;9.90;90.00
26254;DHT22;53339;51.378;0.094;2023-03-31T06:02:56;9.90;89.90
26254;DHT22;53339;51.378;0.094;2023-03-31T06:05:27;9.90;90.00
26254;DHT22;53339;51.378;0.094;2023-03-31T06:08:00;9.90;89.90
26254;DHT22;53339;51.378;0.094;2023-03-31T06:10:28;9.90;90.00
26254;DHT22;53339;51.378;0.094;2023-03-31T06:12:57;9.90;89.90
26254;DHT22;53339;51.378;0.094;2023-03-31T06:15:26;9.90;90.00
26254;DHT22;53339;51.378;0.094;2023-03-31T06:17:53;9.90;90.00
26254;DHT22;53339;51.378;0.094;2023-03-31T06:20:22;9.90;90.00
26254;DHT22;53339;51.378;0.094;2023-03-31T06:22:54;9.90;90.00
26254;DHT22;53339;51.378;0.094;2023-03-31T06:25:22;9.90;90.00
26254;DHT22;53339;51.378;0.094;2023-03-31T06:27:50;9.90;90.10
26254;DHT22;53339;51.378;0.094;2023-03-31T06:30:18;9.90;90.10
26254;DHT22;53339;51.378;0.094;2023-03-31T06:32:47;9.90;90.10
26254;DHT22;53339;51.378;0.094;2023-03-31T06:35:17;9.90;90.10
26254;DHT22;53339;51.378;0.094;2023-03-31T06:37:45;9.90;90.20
26254;DHT22;53339;51.378;0.094;2023-03-31T06:40:13;10.00;90.20
26254;DHT22;53339;51.378;0.094;2023-03-31T06:42:42;10.00;90.10
26254;DHT22;53339;51.378;0.094;2023-03-31T06:45:10;10.00;90.10
26254;DHT22;53339;51.378;0.094;2023-03-31T06:47:38;10.00;90.10
26254;DHT22;53339;51.378;0.094;2023-03-31T06:50:09;10.00;90.20
26254;DHT22;53339;51.378;0.094;2023-03-31T06:52:37;10.00;90.20
26254;DHT22;53339;51.378;0.094;2023-03-31T06:55:07;10.00;90.20
26254;DHT22;53339;51.378;0.094;2023-03-31T06:57:36;10.10;90.20
26254;DHT22;53339;51.378;0.094;2023-03-31T07:00:06;10.10;90.20
26254;DHT22;53339;51.378;0.094;2023-03-31T07:02:34;10.10;90.20
26254;DHT22;53339;51.378;0.094;2023-03-31T07:05:03;10.10;90.20
26254;DHT22;53339;51.378;0.094;2023-03-31T07:07:32;10.10;90.10
26254;DHT22;53339;51.378;0.094;2023-03-31T07:10:00;10.20;90.10
26254;DHT22;53339;51.378;0.094;2023-03-31T07:12:31;10.20;90.10
26254;DHT22;53339;51.378;0.094;2023-03-31T07:15:02;10.20;90.00
26254;DHT22;53339;51.378;0.094;2023-03-31T07:17:30;10.20;90.00
26254;DHT22;53339;51.378;0.094;2023-03-31T07:19:59;10.20;90.00
26254;DHT22;53339;51.378;0.094;2023-03-31T07:22:27;10.10;89.90
26254;DHT22;53339;51.378;0.094;2023-03-31T07:24:54;10.20;89.90
26254;DHT22;53339;51.378;0.094;2023-03-31T07:27:22;10.20;90.00
26254;DHT22;53339;51.378;0.094;2023-03-31T07:29:52;10.20;89.90
26254;DHT22;53339;51.378;0.094;2023-03-31T07:32:22;10.20;90.00
26254;DHT22;53339;51.378;0.094;2023-03-31T07:34:54;10.20;90.00
26254;DHT22;53339;51.378;0.094;2023-03-31T07:37:22;10.20;90.00
26254;DHT22;53339;51.378;0.094;2023-03-31T07:39:51;10.20;90.10
26254;DHT22;53339;51.378;0.094;2023-03-31T07:42:19;10.30;90.10
26254;DHT22;53339;51.378;0.094;2023-03-31T07:44:48;10.30;90.10
26254;DHT22;53339;51.378;0.094;2023-03-31T07:47:17;10.30;90.00
26254;DHT22;53339;51.378;0.094;2023-03-31T07:49:45;10.30;90.00
26254;DHT22;53339;51.378;0.094;2023-03-31T07:52:14;10.30;89.90
26254;DHT22;53339;51.378;0.094;2023-03-31T07:54:42;10.30;89.90
26254;DHT22;53339;51.378;0.094;2023-03-31T07:57:11;10.30;90.00
26254;DHT22;53339;51.378;0.094;2023-03-31T07:59:40;10.40;89.90
26254;DHT22;53339;51.378;0.094;2023-03-31T08:02:11;10.40;89.80
26254;DHT22;53339;51.378;0.094;2023-03-31T08:04:40;10.30;89.70
26254;DHT22;53339;51.378;0.094;2023-03-31T08:07:10;10.30;89.50
26254;DHT22;53339;51.378;0.094;2023-03-31T08:09:43;10.30;89.60
26254;DHT22;53339;51.378;0.094;2023-03-31T08:12:13;10.40;89.70
26254;DHT22;53339;51.378;0.094;2023-03-31T08:14:43;10.40;89.60
26254;DHT22;53339;51.378;0.094;2023-03-31T08:17:11;10.40;89.60
26254;DHT22;53339;51.378;0.094;2023-03-31T08:19:40;10.40;89.50
26254;DHT22;53339;51.378;0.094;2023-03-31T08:22:09;10.40;89.50
26254;DHT22;53339;51.378;0.094;2023-03-31T08:24:43;10.50;89.60
26254;DHT22;53339;51.378;0.094;2023-03-31T08:27:11;10.60;89.60
26254;DHT22;53339;51.378;0.094;2023-03-31T08:29:39;10.70;89.50
26254;DHT22;53339;51.378;0.094;2023-03-31T08:32:07;10.70;89.20
26254;DHT22;53339;51.378;0.094;2023-03-31T08:34:35;10.60;88.90
26254;DHT22;53339;51.378;0.094;2023-03-31T08:37:03;10.60;88.60
26254;DHT22;53339;51.378;0.094;2023-03-31T08:39:32;10.60;88.60
26254;DHT22;53339;51.378;0.094;2023-03-31T08:42:06;10.50;88.50
26254;DHT22;53339;51.378;0.094;2023-03-31T08:45:00;10.50;88.40
26254;DHT22;53339;51.378;0.094;2023-03-31T08:47:31;10.50;88.70
26254;DHT22;53339;51.378;0.094;2023-03-31T08:50:18;10.40;88.80
26254;DHT22;53339;51.378;0.094;2023-03-31T08:53:07;10.50;88.90
26254;DHT22;53339;51.378;0.094;2023-03-31T08:55:56;10.50;88.80
26254;DHT22;53339;51.378;0.094;2023-03-31T08:58:41;10.50;88.70
26254;DHT22;53339;51.378;0.094;2023-03-31T09:01:29;10.50;88.60
26254;DHT22;53339;51.378;0.094;2023-03-31T09:10:09;10.60;88.80
26254;DHT22;53339;51.378;0.094;2023-03-31T09:18:37;10.60;88.70
26254;DHT22;53339;51.378;0.094;2023-03-31T09:21:17;10.60;88.70
26254;DHT22;53339;51.378;0.094;2023-03-31T09:24:02;10.60;88.70
26254;DHT22;53339;51.378;0.094;2023-03-31T09:26:44;10.60;88.80
26254;DHT22;53339;51.378;0.094;2023-03-31T09:34:45;10.60;88.80
26254;DHT22;53339;51.378;0.094;2023-03-31T09:37:15;10.60;88.60
26254;DHT22;53339;51.378;0.094;2023-03-31T09:39:46;10.60;88.60
26254;DHT22;53339;51.378;0.094;2023-03-31T09:42:15;10.50;88.60
26254;DHT22;53339;51.378;0.094;2023-03-31T09:44:45;10.60;88.70
26254;DHT22;53339;51.378;0.094;2023-03-31T09:47:24;10.50;88.70
26254;DHT22;53339;51.378;0.094;2023-03-31T09:49:59;10.50;88.70
26254;DHT22;53339;51.378;0.094;2023-03-31T09:52:56;10.50;88.70
26254;DHT22;53339;51.378;0.094;2023-03-31T09:55:44;10.50;88.70
26254;DHT22;53339;51.378;0.094;2023-03-31T09:58:16;10.50;88.80
26254;DHT22;53339;51.378;0.094;2023-03-31T10:01:05;10.60;88.90
26254;DHT22;53339;51.378;0.094;2023-03-31T10:03:54;10.60;88.90
26254;DHT22;53339;51.378;0.094;2023-03-31T10:06:24;10.60;89.00
26254;DHT22;53339;51.378;0.094;2023-03-31T10:09:09;10.60;89.00
26254;DHT22;53339;51.378;0.094;2023-03-31T10:11:58;10.70;89.00
26254;DHT22;53339;51.378;0.094;2023-03-31T10:14:48;10.70;89.00
26254;DHT22;53339;51.378;0.094;2023-03-31T10:17:22;10.80;88.90
26254;DHT22;53339;51.378;0.094;2023-03-31T10:20:13;10.80;88.80
26254;DHT22;53339;51.378;0.094;2023-03-31T10:22:45;10.90;88.60
26254;DHT22;53339;51.378;0.094;2023-03-31T10:25:19;10.80;88.50
26254;DHT22;53339;51.378;0.094;2023-03-31T10:27:52;10.80;88.50
26254;DHT22;53339;51.378;0.094;2023-03-31T10:30:23;10.80;88.60
26254;DHT22;53339;51.378;0.094;2023-03-31T10:32:53;10.80;88.60
26254;DHT22;53339;51.378;0.094;2023-03-31T10:38:18;10.70;88.70
26254;DHT22;53339;51.378;0.094;2023-03-31T10:40:52;10.70;88.70
26254;DHT22;53339;51.378;0.094;2023-03-31T10:43:41;10.70;88.90
26254;DHT22;53339;51.378;0.094;2023-03-31T10:46:11;10.80;89.00
26254;DHT22;53339;51.378;0.094;2023-03-31T10:48:42;10.80;89.00
26254;DHT22;53339;51.378;0.094;2023-03-31T10:51:17;10.90;89.20
26254;DHT22;53339;51.378;0.094;2023-03-31T10:53:52;11.00;89.40
26254;DHT22;53339;51.378;0.094;2023-03-31T11:05:09;11.30;89.00
26254;DHT22;53339;51.378;0.094;2023-03-31T11:16:16;11.30;88.90
26254;DHT22;53339;51.378;0.094;2023-03-31T11:22:08;11.40;88.80
26254;DHT22;53339;51.378;0.094;2023-03-31T11:30:35;11.50;88.50
26254;DHT22;53339;51.378;0.094;2023-03-31T11:33:33;11.50;88.50
26254;DHT22;53339;51.378;0.094;2023-03-31T11:39:21;11.60;87.80
26254;DHT22;53339;51.378;0.094;2023-03-31T11:42:25;11.60;87.60
26254;DHT22;53339;51.378;0.094;2023-03-31T11:45:11;11.60;87.70
26254;DHT22;53339;51.378;0.094;2023-03-31T11:47:45;11.50;87.80
26254;DHT22;53339;51.378;0.094;2023-03-31T11:50:24;11.50;88.20
26254;DHT22;53339;51.378;0.094;2023-03-31T11:53:17;11.50;88.20
26254;DHT22;53339;51.378;0.094;2023-03-31T11:55:49;11.50;88.00
26254;DHT22;53339;51.378;0.094;2023-03-31T11:58:39;11.50;88.10
26254;DHT22;53339;51.378;0.094;2023-03-31T12:01:43;11.50;88.10
26254;DHT22;53339;51.378;0.094;2023-03-31T12:04:34;11.60;87.50
26254;DHT22;53339;51.378;0.094;2023-03-31T12:13:25;11.70;87.50
26254;DHT22;53339;51.378;0.094;2023-03-31T12:19:03;11.80;87.20
26254;DHT22;53339;51.378;0.094;2023-03-31T12:21:36;11.80;86.90
26254;DHT22;53339;51.378;0.094;2023-03-31T12:24:10;11.90;86.90
26254;DHT22;53339;51.378;0.094;2023-03-31T12:27:02;11.80;87.20
26254;DHT22;53339;51.378;0.094;2023-03-31T12:29:44;11.90;87.20
26254;DHT22;53339;51.378;0.094;2023-03-31T12:32:19;11.80;87.40
26254;DHT22;53339;51.378;0.094;2023-03-31T12:34:58;11.80;87.30
26254;DHT22;53339;51.378;0.094;2023-03-31T12:52:06;12.00;86.40
26254;DHT22;53339;51.378;0.094;2023-03-31T12:54:56;12.00;86.10
26254;DHT22;53339;51.378;0.094;2023-03-31T12:57:31;12.20;86.00
26254;DHT22;53339;51.378;0.094;2023-03-31T13:02:43;12.60;85.40
26254;DHT22;53339;51.378;0.094;2023-03-31T13:11:41;13.30;84.10
26254;DHT22;53339;51.378;0.094;2023-03-31T13:14:22;14.10;83.50
26254;DHT22;53339;51.378;0.094;2023-03-31T13:16:53;14.40;82.50
26254;DHT22;53339;51.378;0.094;2023-03-31T13:19:40;14.20;80.70
26254;DHT22;53339;51.378;0.094;2023-03-31T13:28:44;13.70;81.00
26254;DHT22;53339;51.378;0.094;2023-03-31T13:33:26;14.00;81.60
26254;DHT22;53339;51.378;0.094;2023-03-31T13:44:50;15.00;79.20
26254;DHT22;53339;51.378;0.094;2023-03-31T14:07:12;12.50;84.70
26254;DHT22;53339;51.378;0.094;2023-03-31T14:09:45;12.20;85.50
26254;DHT22;53339;51.378;0.094;2023-03-31T14:12:41;12.10;86.20
26254;DHT22;53339;51.378;0.094;2023-03-31T14:15:20;11.90;86.80
26254;DHT22;53339;51.378;0.094;2023-03-31T14:17:48;11.80;87.20
26254;DHT22;53339;51.378;0.094;2023-03-31T14:20:25;11.70;86.30
26254;DHT22;53339;51.378;0.094;2023-03-31T14:23:10;11.30;86.30
26254;DHT22;53339;51.378;0.094;2023-03-31T14:28:28;10.70;87.20
26254;DHT22;53339;51.378;0.094;2023-03-31T14:31:30;10.60;87.80
26254;DHT22;53339;51.378;0.094;2023-03-31T14:34:27;10.60;88.40
26254;DHT22;53339;51.378;0.094;2023-03-31T14:37:00;10.60;89.10
26254;DHT22;53339;51.378;0.094;2023-03-31T14:39:39;10.80;89.80
26254;DHT22;53339;51.378;0.094;2023-03-31T14:42:13;10.90;90.00
26254;DHT22;53339;51.378;0.094;2023-03-31T14:44:43;11.00;90.10
26254;DHT22;53339;51.378;0.094;2023-03-31T14:47:19;11.10;90.10
26254;DHT22;53339;51.378;0.094;2023-03-31T14:49:57;11.20;90.10
26254;DHT22;53339;51.378;0.094;2023-03-31T14:52:29;11.20;89.90
26254;DHT22;53339;51.378;0.094;2023-03-31T14:54:59;11.20;89.80
26254;DHT22;53339;51.378;0.094;2023-03-31T14:57:34;11.20;89.60
26254;DHT22;53339;51.378;0.094;2023-03-31T15:00:07;11.20;89.70
26254;DHT22;53339;51.378;0.094;2023-03-31T15:02:40;11.20;89.70
26254;DHT22;53339;51.378;0.094;2023-03-31T15:05:30;11.20;89.70
26254;DHT22;53339;51.378;0.094;2023-03-31T15:08:07;11.20;89.70
26254;DHT22;53339;51.378;0.094;2023-03-31T15:10:42;11.20;89.50
26254;DHT22;53339;51.378;0.094;2023-03-31T15:13:34;11.10;89.50
26254;DHT22;53339;51.378;0.094;2023-03-31T15:16:34;11.10;89.50
26254;DHT22;53339;51.378;0.094;2023-03-31T15:19:28;11.10;89.60
26254;DHT22;53339;51.378;0.094;2023-03-31T15:24:31;11.10;89.60
26254;DHT22;53339;51.378;0.094;2023-03-31T15:27:08;11.10;89.80
26254;DHT22;53339;51.378;0.094;2023-03-31T15:29:44;11.10;89.80
26254;DHT22;53339;51.378;0.094;2023-03-31T15:32:23;11.10;89.70
26254;DHT22;53339;51.378;0.094;2023-03-31T15:34:53;11.10;89.70
26254;DHT22;53339;51.378;0.094;2023-03-31T15:37:34;11.10;89.60
26254;DHT22;53339;51.378;0.094;2023-03-31T15:40:18;11.00;89.50
26254;DHT22;53339;51.378;0.094;2023-03-31T15:42:52;11.00;89.20
26254;DHT22;53339;51.378;0.094;2023-03-31T15:45:44;10.90;89.10
26254;DHT22;53339;51.378;0.094;2023-03-31T15:53:48;10.80;89.10
26254;DHT22;53339;51.378;0.094;2023-03-31T15:59:27;10.60;89.30
26254;DHT22;53339;51.378;0.094;2023-03-31T16:02:12;10.60;89.50
26254;DHT22;53339;51.378;0.094;2023-03-31T16:04:41;10.70;89.80
26254;DHT22;53339;51.378;0.094;2023-03-31T16:07:21;10.70;89.80
26254;DHT22;53339;51.378;0.094;2023-03-31T16:09:54;10.70;89.80
26254;DHT22;53339;51.378;0.094;2023-03-31T16:12:29;10.70;89.70
26254;DHT22;53339;51.378;0.094;2023-03-31T16:15:29;10.70;89.60
26254;DHT22;53339;51.378;0.094;2023-03-31T16:18:09;10.70;89.60
26254;DHT22;53339;51.378;0.094;2023-03-31T16:20:43;10.70;89.60
26254;DHT22;53339;51.378;0.094;2023-03-31T16:23:25;10.70;89.70
26254;DHT22;53339;51.378;0.094;2023-03-31T16:25:54;10.70;89.60
26254;DHT22;53339;51.378;0.094;2023-03-31T16:28:33;10.60;89.70
26254;DHT22;53339;51.378;0.094;2023-03-31T16:31:33;10.60;89.70
26254;DHT22;53339;51.378;0.094;2023-03-31T16:34:04;10.60;89.70
26254;DHT22;53339;51.378;0.094;2023-03-31T16:36:37;10.60;89.70
26254;DHT22;53339;51.378;0.094;2023-03-31T16:39:07;10.50;89.70
26254;DHT22;53339;51.378;0.094;2023-03-31T16:41:36;10.50;89.50
26254;DHT22;53339;51.378;0.094;2023-03-31T16:44:06;10.40;89.50
26254;DHT22;53339;51.378;0.094;2023-03-31T16:46:35;10.40;89.50
26254;DHT22;53339;51.378;0.094;2023-03-31T16:49:05;10.30;89.40
26254;DHT22;53339;51.378;0.094;2023-03-31T16:51:34;10.30;89.50
26254;DHT22;53339;51.378;0.094;2023-03-31T16:54:03;10.30;89.40
26254;DHT22;53339;51.378;0.094;2023-03-31T16:56:32;10.30;89.50
26254;DHT22;53339;51.378;0.094;2023-03-31T16:59:00;10.30;89.40
26254;DHT22;53339;51.378;0.094;2023-03-31T17:01:29;10.20;89.50
26254;DHT22;53339;51.378;0.094;2023-03-31T17:04:03;10.20;89.60
26254;DHT22;53339;51.378;0.094;2023-03-31T17:06:33;10.20;89.70
26254;DHT22;53339;51.378;0.094;2023-03-31T17:09:01;10.20;89.70
26254;DHT22;53339;51.378;0.094;2023-03-31T17:11:30;10.20;89.80
26254;DHT22;53339;51.378;0.094;2023-03-31T17:14:02;10.20;89.80
26254;DHT22;53339;51.378;0.094;2023-03-31T17:16:32;10.10;89.80
26254;DHT22;53339;51.378;0.094;2023-03-31T17:19:17;10.20;89.80
26254;DHT22;53339;51.378;0.094;2023-03-31T17:21:51;10.10;89.90
26254;DHT22;53339;51.378;0.094;2023-03-31T17:24:19;10.20;90.00
26254;DHT22;53339;51.378;0.094;2023-03-31T17:26:49;10.20;90.10
26254;DHT22;53339;51.378;0.094;2023-03-31T17:29:20;10.20;90.10
26254;DHT22;53339;51.378;0.094;2023-03-31T17:31:49;10.10;90.10
26254;DHT22;53339;51.378;0.094;2023-03-31T17:34:18;10.20;90.10
26254;DHT22;53339;51.378;0.094;2023-03-31T17:36:47;10.10;90.10
26254;DHT22;53339;51.378;0.094;2023-03-31T17:39:18;10.10;90.10
26254;DHT22;53339;51.378;0.094;2023-03-31T17:41:47;10.10;90.10
26254;DHT22;53339;51.378;0.094;2023-03-31T17:44:15;10.10;90.10
26254;DHT22;53339;51.378;0.094;2023-03-31T17:46:43;10.10;90.20
26254;DHT22;53339;51.378;0.094;2023-03-31T17:49:16;10.10;90.20
26254;DHT22;53339;51.378;0.094;2023-03-31T17:51:44;10.10;90.30
26254;DHT22;53339;51.378;0.094;2023-03-31T17:54:15;10.10;90.30
26254;DHT22;53339;51.378;0.094;2023-03-31T17:56:46;10.10;90.30
26254;DHT22;53339;51.378;0.094;2023-03-31T17:59:21;10.10;90.30
26254;DHT22;53339;51.378;0.094;2023-03-31T18:01:51;10.10;90.40
26254;DHT22;53339;51.378;0.094;2023-03-31T18:04:23;10.10;90.50
26254;DHT22;53339;51.378;0.094;2023-03-31T18:06:56;10.20;90.50
26254;DHT22;53339;51.378;0.094;2023-03-31T18:09:24;10.20;90.50
26254;DHT22;53339;51.378;0.094;2023-03-31T18:11:53;10.20;90.50
26254;DHT22;53339;51.378;0.094;2023-03-31T18:14:27;10.20;90.50
26254;DHT22;53339;51.378;0.094;2023-03-31T18:16:57;10.20;90.50
26254;DHT22;53339;51.378;0.094;2023-03-31T18:19:25;10.20;90.50
26254;DHT22;53339;51.378;0.094;2023-03-31T18:21:53;10.20;90.50
26254;DHT22;53339;51.378;0.094;2023-03-31T18:24:22;10.20;90.50
26254;DHT22;53339;51.378;0.094;2023-03-31T18:26:51;10.20;90.60
26254;DHT22;53339;51.378;0.094;2023-03-31T18:29:19;10.20;90.50
26254;DHT22;53339;51.378;0.094;2023-03-31T18:31:47;10.20;90.50
26254;DHT22;53339;51.378;0.094;2023-03-31T18:34:17;10.20;90.60
26254;DHT22;53339;51.378;0.094;2023-03-31T18:36:46;10.20;90.60
26254;DHT22;53339;51.378;0.094;2023-03-31T18:39:14;10.20;90.60
26254;DHT22;53339;51.378;0.094;2023-03-31T18:41:45;10.20;90.60
26254;DHT22;53339;51.378;0.094;2023-03-31T18:44:15;10.20;90.60
26254;DHT22;53339;51.378;0.094;2023-03-31T18:46:45;10.10;90.60
26254;DHT22;53339;51.378;0.094;2023-03-31T18:49:14;10.20;90.60
26254;DHT22;53339;51.378;0.094;2023-03-31T18:51:43;10.20;90.70
26254;DHT22;53339;51.378;0.094;2023-03-31T18:54:11;10.20;90.70
26254;DHT22;53339;51.378;0.094;2023-03-31T18:56:43;10.20;90.70
26254;DHT22;53339;51.378;0.094;2023-03-31T18:59:14;10.10;90.70
26254;DHT22;53339;51.378;0.094;2023-03-31T19:01:44;10.20;90.70